Lenox, MA

9:59 PM EST on December 22, 2014 (GMT -0500)
Morse State | Change Station
CLOSE
Current Station
Airport
Location: Bennington,
Elevation: 827 ft
Nearby Weather Stations

Elev 827 ft 42.89 °N, 73.25 °W | Updated 5 minutes ago

Overcast
Overcast
38 °F
Feels Like 32 °F
N
9
Wind Variable Wind from SSE

Today
High -- | Low -- °F
--% Chance of Precip.
Yesterday
High -- | Low -- °F
Precip. -- in
7:19 AM 4:24 PM
New Moon, 2% visible
Pressure 30.25 in
Visibility 10.0 miles
Clouds Overcast 4000 ft
Windchill 32 °F
Dew Point 32 °F
Humidity 79%
Rainfall 0.00 in
Snow Depth Not available.
UV 0 out of 12
Pollen .10 out of 12
Air Quality Not available.
Flu Activity Not available.
METAR KDDH 230254Z AUTO 15008KT 10SM OVC040 03/00 A3023 RMK AO2 SLP243 T00330000 56008

More Conditions Fewer Conditions

Pressure 30.25 in
Visibility 10.0 miles
Clouds Overcast 4000 ft
Windchill 32 °F
Dew Point 32 °F
Humidity 79%
Rainfall 0.00 in
Snow Depth Not available.
UV 0 out of 12
Pollen .10 out of 12
Air Quality Not available.
Flu Activity Not available.
METAR KDDH 230254Z AUTO 15008KT 10SM OVC040 03/00 A3023 RMK AO2 SLP243 T00330000 56008

More Conditions Fewer Conditions

10-Day Weather Forecast

Almanac

Astronomy

Dec. 22, 2014 Rise Set
Actual Time
Civil Twilight
Nautical Twilight
Astronomical Twilight
Moon
Length of Visible Light
Length of Day
Tomorrow will be .
, % of the Moon is Illuminated

Today's Extremes

State Highs State Lows

Community

WunderPhotos

Upload Photos

1,779,762 photos uploaded!

WunderBlogs® & News

Nearby

Air Quality

  Air Quality AQ Index Pollutant
Not available.

Snow Depth

Station Depth Elevation

Earthquake Activity

City Distance Mag. Time & Date
Minimum magnitude displayed is 2.5.

Coastal Water Temperatures

Place Temperature

Nearby Weather Stations